Weather at Kıyı Emniyet Gemi Hizmetleri Merkezi Heliport

Public forecast

Using degrees Celsius for public forecast. Weather courtesy of forecast.io.

Closest aviation weather report (METAR) to Kıyı Emniyet Gemi Hizmetleri Merkezi Heliport

Closest report is Çanakkale Airport, 5.4 nm (10.1 km) S.

2023/03/20 20:50 (retrieved 56 minutes ago)

LTBH 202050Z 08005KT CAVOK 08/06 Q1017

Closest aviation forecast (TAF) to Kıyı Emniyet Gemi Hizmetleri Merkezi Heliport

Closest forecast is Tekirdağ Çorlu Airport, 87.2 nm (161.5 km) NE.

2023/03/20 18:03 (retrieved 4 hours ago)

TAF LTBU 201640Z 2018/2118 VRB02KT CAVOK BECMG 2021/2024 4000 BR SCT015 PROB40 TEMPO 2102/2106 1200 BCFG BECMG 2106/2109 CAVOK